createdAt,value
2023-05-18T00:02:03.984Z,56.52
2023-05-18T00:07:07.233Z,56.73
2023-05-18T00:12:10.714Z,56.80
2023-05-18T00:17:15.982Z,56.43
2023-05-18T00:22:19.177Z,56.65
2023-05-18T00:27:21.955Z,56.57
2023-05-18T00:32:26.000Z,56.46
2023-05-18T00:37:28.685Z,56.65
2023-05-18T00:42:31.376Z,56.86
2023-05-18T00:47:35.618Z,56.55
2023-05-18T00:52:38.613Z,56.23
2023-05-18T00:57:44.458Z,56.56
2023-05-18T01:02:51.136Z,56.02
2023-05-18T01:07:56.510Z,55.42
2023-05-18T01:13:02.260Z,56.34
2023-05-18T01:18:15.221Z,55.54
2023-05-18T01:24:05.896Z,56.26
2023-05-18T01:29:11.429Z,56.06
2023-05-18T01:34:14.274Z,55.12
2023-05-18T01:39:17.115Z,56.10
2023-05-18T01:44:24.978Z,55.49
2023-05-18T01:49:31.971Z,56.43
2023-05-18T01:54:36.877Z,56.35
2023-05-18T01:59:43.413Z,55.13
2023-05-18T02:04:46.291Z,55.11
2023-05-18T02:09:49.301Z,54.99
2023-05-18T02:14:55.220Z,55.44
2023-05-18T02:19:58.496Z,55.82
2023-05-18T02:25:01.206Z,55.14
2023-05-18T02:30:06.667Z,55.87
2023-05-18T02:35:10.352Z,56.37
2023-05-18T02:40:14.286Z,55.82
2023-05-18T02:45:20.816Z,55.48
2023-05-18T02:50:23.496Z,56.00
2023-05-18T02:55:26.273Z,55.61
2023-05-18T03:00:52.837Z,55.81
2023-05-18T03:05:55.624Z,54.91
2023-05-18T03:10:58.693Z,55.80
2023-05-18T03:16:02.898Z,55.45
2023-05-18T03:21:06.101Z,55.76
2023-05-18T03:26:11.419Z,56.57
2023-05-18T03:31:16.179Z,56.12
2023-05-18T03:36:18.959Z,55.97
2023-05-18T03:41:22.076Z,55.22
2023-05-18T03:46:27.230Z,56.59
2023-05-18T03:51:31.255Z,56.02
2023-05-18T03:56:34.040Z,55.98
2023-05-18T04:01:42.130Z,56.64
2023-05-18T04:06:46.679Z,56.30
2023-05-18T04:11:49.389Z,56.40
2023-05-18T04:16:53.522Z,55.88
2023-05-18T04:21:56.281Z,55.72
2023-05-18T04:26:59.357Z,55.60
2023-05-18T04:32:03.438Z,55.35
2023-05-18T04:37:06.722Z,55.81
2023-05-18T04:42:10.554Z,54.46
2023-05-18T04:47:14.809Z,53.76
2023-05-18T04:52:17.650Z,54.52
2023-05-18T04:57:20.387Z,53.87
2023-05-18T05:02:24.853Z,52.75
2023-05-18T05:07:27.915Z,52.41
2023-05-18T05:12:30.677Z,50.83
2023-05-18T05:17:34.746Z,50.29
2023-05-18T05:22:37.521Z,50.05
2023-05-18T05:27:42.047Z,49.79
2023-05-18T05:32:46.403Z,49.88
2023-05-18T05:37:49.288Z,49.45
2023-05-18T05:42:53.056Z,49.59
2023-05-18T05:47:57.246Z,49.47
2023-05-18T05:53:00.643Z,49.00
2023-05-18T05:58:05.379Z,49.31
2023-05-18T06:03:09.834Z,48.94
2023-05-18T06:08:17.184Z,48.90
2023-05-18T06:13:20.505Z,48.64
2023-05-18T06:18:31.234Z,48.80
2023-05-18T06:23:39.476Z,48.86
2023-05-18T06:29:02.900Z,48.23
2023-05-18T06:34:33.080Z,48.54
2023-05-18T06:39:37.010Z,48.26
2023-05-18T06:44:39.922Z,48.59
2023-05-18T06:49:55.001Z,48.40
2023-05-18T06:54:58.014Z,48.44
2023-05-18T07:00:01.320Z,48.01
2023-05-18T07:05:09.142Z,47.92
2023-05-18T07:10:11.980Z,47.76
2023-05-18T07:15:14.642Z,47.68
2023-05-18T07:20:18.620Z,47.67
2023-05-18T07:25:21.456Z,47.60
2023-05-18T07:30:24.334Z,47.63
2023-05-18T07:35:28.352Z,47.69
2023-05-18T07:40:31.002Z,47.91
2023-05-18T07:45:33.889Z,47.83
2023-05-18T07:50:38.241Z,47.73
2023-05-18T07:55:42.079Z,48.07
2023-05-18T08:00:45.238Z,47.92
2023-05-18T08:05:49.246Z,47.85
2023-05-18T08:10:52.440Z,47.76
2023-05-18T08:16:10.337Z,48.08
2023-05-18T08:21:14.937Z,47.95
2023-05-18T08:26:17.597Z,48.17
2023-05-18T08:31:21.124Z,47.79
2023-05-18T08:36:25.201Z,47.73
2023-05-18T08:41:30.939Z,47.73
2023-05-18T08:46:35.640Z,48.91
2023-05-18T08:51:41.834Z,48.71
2023-05-18T08:56:45.288Z,49.16
2023-05-18T09:01:47.969Z,49.03
2023-05-18T09:06:52.645Z,48.87
2023-05-18T09:11:57.076Z,48.98
2023-05-18T09:16:59.789Z,49.25
2023-05-18T09:22:04.315Z,49.27
2023-05-18T09:27:07.179Z,49.48
2023-05-18T09:32:11.894Z,49.43
2023-05-18T09:37:17.399Z,49.48
2023-05-18T09:42:20.794Z,49.55
2023-05-18T09:47:24.998Z,49.64
2023-05-18T09:52:29.137Z,49.47
2023-05-18T09:57:41.582Z,49.59
2023-05-18T10:02:48.743Z,49.73
2023-05-18T10:07:53.063Z,50.26
2023-05-18T10:12:58.306Z,50.17
2023-05-18T10:18:03.386Z,50.45
2023-05-18T10:23:08.363Z,50.31
2023-05-18T10:28:11.548Z,50.31
2023-05-18T10:33:27.951Z,50.57
2023-05-18T10:38:35.010Z,50.26
2023-05-18T10:43:37.883Z,50.36
2023-05-18T10:48:48.042Z,50.46
2023-05-18T10:53:53.335Z,50.28
2023-05-18T10:58:57.974Z,50.52
2023-05-18T11:04:02.519Z,50.38
2023-05-18T11:09:06.744Z,50.65
2023-05-18T11:14:10.391Z,50.58
2023-05-18T11:19:13.236Z,50.63
2023-05-18T11:24:19.338Z,50.72
2023-05-18T11:29:24.337Z,50.67
2023-05-18T11:34:45.283Z,50.78
2023-05-18T11:40:00.313Z,50.78
2023-05-18T11:45:10.985Z,50.58
2023-05-18T11:50:13.752Z,50.82
2023-05-18T11:55:19.842Z,50.88
2023-05-18T12:00:22.885Z,50.76
2023-05-18T12:05:31.365Z,50.88
2023-05-18T12:10:36.657Z,50.99
2023-05-18T12:15:39.978Z,50.76
2023-05-18T12:20:43.513Z,50.96
2023-05-18T12:25:48.760Z,51.07
2023-05-18T12:30:57.015Z,50.96
2023-05-18T12:35:59.666Z,51.01
2023-05-18T12:41:03.731Z,51.13
2023-05-18T12:46:06.809Z,50.99
2023-05-18T12:51:18.904Z,50.97
2023-05-18T12:56:25.196Z,51.02
2023-05-18T13:01:28.123Z,51.06
2023-05-18T13:06:30.989Z,51.08
2023-05-18T13:11:35.117Z,51.01
2023-05-18T13:16:39.754Z,51.03
2023-05-18T13:21:42.433Z,51.04
2023-05-18T13:26:46.498Z,51.20
2023-05-18T13:31:49.330Z,51.20
2023-05-18T13:36:52.084Z,51.16
2023-05-18T13:41:56.573Z,51.05
2023-05-18T13:46:59.207Z,51.28
2023-05-18T13:52:01.842Z,51.28
2023-05-18T13:57:07.791Z,51.17
2023-05-18T14:02:10.563Z,51.12
2023-05-18T14:07:13.268Z,51.35
2023-05-18T14:12:17.294Z,51.25
2023-05-18T14:17:20.073Z,51.53
2023-05-18T14:22:22.823Z,51.38
2023-05-18T14:27:26.828Z,51.39
2023-05-18T14:32:29.635Z,51.40
2023-05-18T14:37:33.096Z,51.50
2023-05-18T14:42:37.471Z,51.45
2023-05-18T14:47:40.233Z,51.33
2023-05-18T14:52:43.008Z,51.43
2023-05-18T14:57:47.002Z,51.30
2023-05-18T15:02:49.926Z,51.59
2023-05-18T15:07:52.654Z,51.44
2023-05-18T15:12:56.679Z,51.42
2023-05-18T15:17:59.533Z,51.45
2023-05-18T15:23:02.259Z,51.36
2023-05-18T15:28:06.646Z,51.35
2023-05-18T15:33:09.388Z,51.26
2023-05-18T15:38:13.352Z,51.50
2023-05-18T15:43:17.411Z,51.34
2023-05-18T15:48:20.096Z,51.34
2023-05-18T15:53:22.746Z,51.28
2023-05-18T15:58:26.911Z,51.35
2023-05-18T16:03:29.937Z,51.57
2023-05-18T16:08:32.820Z,51.31
2023-05-18T16:13:36.869Z,51.47
2023-05-18T16:18:39.581Z,51.42
2023-05-18T16:23:42.511Z,51.25
2023-05-18T16:28:46.519Z,51.13
2023-05-18T16:33:49.204Z,51.25
2023-05-18T16:38:51.879Z,51.15
2023-05-18T16:43:55.862Z,51.09
2023-05-18T16:48:58.477Z,50.85
2023-05-18T16:54:01.109Z,50.72
2023-05-18T16:59:05.111Z,50.73
2023-05-18T17:04:07.862Z,50.52
2023-05-18T17:09:10.521Z,50.58
2023-05-18T17:14:14.497Z,50.62
2023-05-18T17:19:17.246Z,50.46
2023-05-18T17:24:20.000Z,50.37
2023-05-18T17:29:24.126Z,50.43
2023-05-18T17:34:27.600Z,50.11
2023-05-18T17:39:30.333Z,49.99
2023-05-18T17:44:34.568Z,49.98
2023-05-18T17:49:37.421Z,49.94
2023-05-18T17:54:40.091Z,49.67
2023-05-18T17:59:44.124Z,49.74
2023-05-18T18:04:46.867Z,49.58
2023-05-18T18:09:49.669Z,49.71
2023-05-18T18:14:53.694Z,49.90
2023-05-18T18:19:56.441Z,49.78
2023-05-18T18:24:59.154Z,49.71
2023-05-18T18:30:03.167Z,49.72
2023-05-18T18:35:07.027Z,50.02
2023-05-18T18:40:11.369Z,50.09
2023-05-18T18:45:15.487Z,50.24
2023-05-18T18:50:18.153Z,50.23
2023-05-18T18:55:21.567Z,51.17
2023-05-18T19:00:25.606Z,50.67
2023-05-18T19:05:29.578Z,51.65
2023-05-18T19:10:34.091Z,51.89
2023-05-18T19:15:38.282Z,52.06
2023-05-18T19:20:40.999Z,52.15
2023-05-18T19:25:43.639Z,51.69
2023-05-18T19:30:48.072Z,52.76
2023-05-18T19:35:51.615Z,51.84
2023-05-18T19:40:54.264Z,52.59
2023-05-18T19:45:58.427Z,53.08
2023-05-18T19:51:02.446Z,53.45
2023-05-18T19:56:05.269Z,53.22
2023-05-18T20:01:09.870Z,51.97
2023-05-18T20:06:18.749Z,53.61
2023-05-18T20:11:21.508Z,53.57
2023-05-18T20:16:29.005Z,53.32
2023-05-18T20:21:32.066Z,53.33
2023-05-18T20:26:34.815Z,52.74
2023-05-18T20:31:50.991Z,54.19
2023-05-18T20:37:02.761Z,53.88
2023-05-18T20:42:05.782Z,52.30
2023-05-18T20:47:11.163Z,54.07
2023-05-18T20:52:13.853Z,53.04
2023-05-18T20:57:16.528Z,54.38
2023-05-18T21:02:20.633Z,52.61
2023-05-18T21:07:23.639Z,53.84
2023-05-18T21:12:26.479Z,52.08
2023-05-18T21:17:30.620Z,52.44
2023-05-18T21:22:33.251Z,51.91
2023-05-18T21:27:37.006Z,53.57
2023-05-18T21:32:43.410Z,52.58
2023-05-18T21:37:46.161Z,53.45
2023-05-18T21:42:48.811Z,53.62
2023-05-18T21:47:52.876Z,53.28
2023-05-18T21:52:55.628Z,53.79
2023-05-18T21:57:58.270Z,53.53
2023-05-18T22:03:02.349Z,53.41
2023-05-18T22:08:05.306Z,53.31
2023-05-18T22:13:08.034Z,53.99
2023-05-18T22:18:12.130Z,53.73
2023-05-18T22:23:14.852Z,53.64
2023-05-18T22:28:21.345Z,53.62
2023-05-18T22:33:25.503Z,53.84
2023-05-18T22:38:28.188Z,53.84
2023-05-18T22:43:31.228Z,54.27
2023-05-18T22:48:35.831Z,54.54
2023-05-18T22:53:38.575Z,54.89
2023-05-18T22:58:41.233Z,54.56
2023-05-18T23:03:45.274Z,54.87
2023-05-18T23:08:48.049Z,54.57
2023-05-18T23:13:51.245Z,54.62
2023-05-18T23:18:58.578Z,54.73
2023-05-18T23:24:01.384Z,55.29
2023-05-18T23:29:04.079Z,55.26
2023-05-18T23:34:08.751Z,55.31
2023-05-18T23:39:12.248Z,54.84
2023-05-18T23:44:15.644Z,55.50
2023-05-18T23:49:20.208Z,55.25
2023-05-18T23:54:23.411Z,55.46
2023-05-18T23:59:27.189Z,55.13
